createdAt,value
2023-04-27T00:00:48.815Z,12.20
2023-04-27T00:03:16.052Z,12.20
2023-04-27T00:05:44.221Z,12.20
2023-04-27T00:08:11.229Z,12.20
2023-04-27T00:10:37.943Z,12.20
2023-04-27T00:13:04.782Z,12.10
2023-04-27T00:15:31.639Z,12.10
2023-04-27T00:17:58.481Z,12.10
2023-04-27T00:20:25.467Z,12.10
2023-04-27T00:22:52.325Z,12.10
2023-04-27T00:25:19.117Z,12.10
2023-04-27T00:27:45.943Z,12.10
2023-04-27T00:30:12.798Z,12.00
2023-04-27T00:32:39.689Z,12.10
2023-04-27T00:35:07.126Z,12.00
2023-04-27T00:37:33.967Z,12.00
2023-04-27T00:40:01.313Z,12.00
2023-04-27T00:42:28.068Z,12.00
2023-04-27T00:44:57.954Z,12.00
2023-04-27T00:47:25.127Z,12.00
2023-04-27T00:49:52.157Z,11.90
2023-04-27T00:52:19.372Z,11.90
2023-04-27T00:54:48.485Z,11.90
2023-04-27T00:57:15.242Z,11.90
2023-04-27T00:59:41.997Z,11.90
2023-04-27T01:02:10.723Z,11.90
2023-04-27T01:04:37.771Z,11.90
2023-04-27T01:07:04.672Z,11.90
2023-04-27T01:09:31.348Z,11.90
2023-04-27T01:11:58.535Z,11.80
2023-04-27T01:14:25.324Z,11.80
2023-04-27T01:16:52.407Z,11.80
2023-04-27T01:19:19.182Z,11.80
2023-04-27T01:21:46.665Z,11.80
2023-04-27T01:24:13.479Z,11.80
2023-04-27T01:26:40.241Z,11.80
2023-04-27T01:29:07.078Z,11.70
2023-04-27T01:31:33.927Z,11.80
2023-04-27T01:34:00.723Z,11.80
2023-04-27T01:36:27.836Z,11.70
2023-04-27T01:38:54.650Z,11.70
2023-04-27T01:41:21.448Z,11.60
2023-04-27T01:43:48.163Z,11.60
2023-04-27T01:46:15.952Z,11.70
2023-04-27T01:48:42.900Z,11.60
2023-04-27T01:51:09.783Z,11.60
2023-04-27T01:53:36.560Z,11.60
2023-04-27T01:56:03.806Z,11.60
2023-04-27T01:58:30.619Z,11.50
2023-04-27T02:00:57.332Z,11.50
2023-04-27T02:03:24.190Z,11.50
2023-04-27T02:05:51.112Z,11.50
2023-04-27T02:08:18.069Z,11.50
2023-04-27T02:10:44.951Z,11.40
2023-04-27T02:13:11.858Z,11.40
2023-04-27T02:15:38.733Z,11.40
2023-04-27T02:18:05.760Z,11.40
2023-04-27T02:20:33.554Z,11.40
2023-04-27T02:23:01.124Z,11.40
2023-04-27T02:25:28.303Z,11.30
2023-04-27T02:27:55.661Z,11.30
2023-04-27T02:30:23.189Z,11.30
2023-04-27T02:32:50.485Z,11.30
2023-04-27T02:35:17.265Z,11.30
2023-04-27T02:37:44.111Z,11.20
2023-04-27T02:40:11.409Z,11.20
2023-04-27T02:42:39.095Z,11.20
2023-04-27T02:45:07.640Z,11.20
2023-04-27T02:47:35.475Z,11.20
2023-04-27T02:50:02.750Z,11.20
2023-04-27T02:52:29.579Z,11.20
2023-04-27T02:54:56.418Z,11.20
2023-04-27T02:57:23.271Z,11.20
2023-04-27T02:59:50.055Z,11.20
2023-04-27T03:02:16.861Z,11.20
2023-04-27T03:04:43.825Z,11.20
2023-04-27T03:07:12.025Z,11.20
2023-04-27T03:09:38.917Z,11.10
2023-04-27T03:12:05.932Z,11.10
2023-04-27T03:14:32.813Z,11.10
2023-04-27T03:17:00.647Z,11.10
2023-04-27T03:19:27.606Z,11.10
2023-04-27T03:21:54.450Z,11.10
2023-04-27T03:24:21.909Z,11.10
2023-04-27T03:26:48.741Z,11.10
2023-04-27T03:29:15.845Z,11.10
2023-04-27T03:31:42.837Z,11.10
2023-04-27T03:34:09.622Z,11.10
2023-04-27T03:36:36.593Z,11.10
2023-04-27T03:39:03.727Z,11.10
2023-04-27T03:41:30.495Z,11.10
2023-04-27T03:43:57.291Z,11.10
2023-04-27T03:46:24.153Z,11.10
2023-04-27T03:48:50.970Z,11.10
2023-04-27T03:51:18.401Z,11.10
2023-04-27T03:53:45.191Z,11.00
2023-04-27T03:56:12.099Z,11.10
2023-04-27T03:58:39.056Z,11.10
2023-04-27T04:01:06.441Z,11.00
2023-04-27T04:03:33.424Z,11.00
2023-04-27T04:06:00.200Z,11.00
2023-04-27T04:08:26.894Z,11.00
2023-04-27T04:10:53.688Z,11.00
2023-04-27T04:13:20.664Z,11.00
2023-04-27T04:15:47.431Z,11.00
2023-04-27T04:18:14.251Z,11.00
2023-04-27T04:20:41.777Z,11.00
2023-04-27T04:23:08.595Z,11.00
2023-04-27T04:25:35.352Z,11.00
2023-04-27T04:28:02.053Z,11.00
2023-04-27T04:30:28.903Z,11.00
2023-04-27T04:32:55.760Z,11.00
2023-04-27T04:35:22.627Z,11.00
2023-04-27T04:37:49.470Z,11.00
2023-04-27T04:40:16.677Z,11.00
2023-04-27T04:42:43.417Z,11.00
2023-04-27T04:45:10.815Z,11.00
2023-04-27T04:47:37.631Z,11.00
2023-04-27T04:50:04.717Z,11.00
2023-04-27T04:52:31.497Z,11.00
2023-04-27T04:54:58.205Z,11.00
2023-04-27T04:57:24.947Z,11.00
2023-04-27T04:59:51.637Z,11.00
2023-04-27T05:02:18.555Z,11.00
2023-04-27T05:04:45.787Z,11.00
2023-04-27T05:07:14.884Z,11.00
2023-04-27T05:09:42.405Z,11.00
2023-04-27T05:12:09.493Z,11.00
2023-04-27T05:14:36.271Z,11.10
2023-04-27T05:17:03.160Z,11.10
2023-04-27T05:19:31.369Z,11.10
2023-04-27T05:22:01.202Z,11.10
2023-04-27T05:24:28.226Z,11.10
2023-04-27T05:26:55.161Z,11.10
2023-04-27T05:29:22.582Z,11.10
2023-04-27T05:31:49.625Z,11.20
2023-04-27T05:34:16.912Z,11.20
2023-04-27T05:36:43.888Z,11.20
2023-04-27T05:39:10.704Z,11.20
2023-04-27T05:41:37.464Z,11.20
2023-04-27T05:44:04.271Z,11.20
2023-04-27T05:46:31.234Z,11.30
2023-04-27T05:48:58.027Z,11.20
2023-04-27T05:51:25.012Z,11.20
2023-04-27T05:53:55.235Z,11.30
2023-04-27T05:56:22.328Z,11.30
2023-04-27T05:58:49.135Z,11.30
2023-04-27T06:01:16.154Z,11.40
2023-04-27T06:03:43.086Z,11.40
2023-04-27T06:06:10.210Z,11.40
2023-04-27T06:08:39.395Z,11.40
2023-04-27T06:11:06.656Z,11.40
2023-04-27T06:13:33.783Z,11.40
2023-04-27T06:16:01.227Z,11.40
2023-04-27T06:18:28.069Z,11.40
2023-04-27T06:21:02.234Z,11.40
2023-04-27T06:23:29.605Z,11.40
2023-04-27T06:25:56.433Z,11.40
2023-04-27T06:28:23.408Z,11.40
2023-04-27T06:30:50.156Z,11.40
2023-04-27T06:33:17.012Z,11.40
2023-04-27T06:35:47.046Z,11.50
2023-04-27T06:38:14.180Z,11.50
2023-04-27T06:40:40.970Z,11.50
2023-04-27T06:43:07.758Z,11.50
2023-04-27T06:45:34.482Z,11.60
2023-04-27T06:48:01.454Z,11.60
2023-04-27T06:50:29.235Z,11.70
2023-04-27T06:52:56.028Z,11.70
2023-04-27T06:55:22.791Z,11.70
2023-04-27T06:57:49.508Z,11.80
2023-04-27T07:00:16.648Z,11.80
2023-04-27T07:02:43.849Z,11.80
2023-04-27T07:05:10.893Z,11.90
2023-04-27T07:07:37.778Z,11.90
2023-04-27T07:10:04.864Z,12.00
2023-04-27T07:12:31.677Z,12.00
2023-04-27T07:14:58.444Z,12.00
2023-04-27T07:17:25.304Z,12.00
2023-04-27T07:19:52.103Z,12.00
2023-04-27T07:22:20.017Z,12.10
2023-04-27T07:24:46.769Z,12.10
2023-04-27T07:27:14.992Z,12.10
2023-04-27T07:29:42.401Z,12.10
2023-04-27T07:32:09.406Z,12.10
2023-04-27T07:34:49.000Z,12.20
2023-04-27T07:37:19.810Z,12.20
2023-04-27T07:39:47.350Z,12.20
2023-04-27T07:42:15.303Z,12.30
2023-04-27T07:44:42.645Z,12.40
2023-04-27T07:47:10.111Z,12.40
2023-04-27T07:49:37.549Z,12.50
2023-04-27T07:52:04.786Z,12.60
2023-04-27T07:54:31.631Z,12.60
2023-04-27T07:56:58.578Z,12.70
2023-04-27T07:59:28.504Z,12.70
2023-04-27T08:01:59.435Z,12.80
2023-04-27T08:04:34.430Z,12.80
2023-04-27T08:07:01.670Z,12.80
2023-04-27T08:09:29.094Z,12.90
2023-04-27T08:11:57.355Z,12.90
2023-04-27T08:14:24.123Z,13.00
2023-04-27T08:16:52.176Z,13.10
2023-04-27T08:19:19.046Z,13.10
2023-04-27T08:21:45.971Z,13.20
2023-04-27T08:24:12.773Z,13.30
2023-04-27T08:26:41.449Z,13.40
2023-04-27T08:29:19.241Z,13.50
2023-04-27T08:31:47.521Z,13.60
2023-04-27T08:34:14.368Z,13.70
2023-04-27T08:36:41.227Z,13.70
2023-04-27T08:39:09.003Z,13.80
2023-04-27T08:41:35.730Z,13.90
2023-04-27T08:44:02.538Z,13.90
2023-04-27T08:46:29.933Z,14.00
2023-04-27T08:48:56.978Z,14.00
2023-04-27T08:51:25.553Z,14.10
2023-04-27T08:53:54.338Z,14.10
2023-04-27T08:56:25.165Z,14.20
2023-04-27T08:58:52.465Z,14.20
2023-04-27T09:01:19.918Z,14.30
2023-04-27T09:03:47.684Z,14.30
2023-04-27T09:06:15.353Z,14.40
2023-04-27T09:08:43.082Z,14.50
2023-04-27T09:11:09.803Z,14.50
2023-04-27T09:13:41.982Z,14.60
2023-04-27T09:16:09.192Z,14.70
2023-04-27T09:18:37.982Z,14.70
2023-04-27T09:21:05.187Z,14.80
2023-04-27T09:23:33.628Z,14.80
2023-04-27T09:26:08.343Z,14.90
2023-04-27T09:28:40.473Z,15.00
2023-04-27T09:31:09.485Z,15.00
2023-04-27T09:33:36.684Z,15.00
2023-04-27T09:36:07.163Z,15.10
2023-04-27T09:38:34.387Z,15.10
2023-04-27T09:41:01.549Z,15.10
2023-04-27T09:43:29.942Z,15.20
2023-04-27T09:45:57.653Z,15.20
2023-04-27T09:48:25.707Z,15.30
2023-04-27T09:50:53.143Z,15.30
2023-04-27T09:53:24.723Z,15.30
2023-04-27T09:56:17.324Z,15.40
2023-04-27T09:58:53.063Z,15.50
2023-04-27T10:01:19.790Z,15.50
2023-04-27T10:03:59.121Z,15.60
2023-04-27T10:06:52.139Z,15.70
2023-04-27T10:09:25.418Z,15.70
2023-04-27T10:11:53.880Z,15.70
2023-04-27T10:14:22.754Z,15.80
2023-04-27T10:16:53.557Z,15.90
2023-04-27T10:19:24.624Z,15.90
2023-04-27T10:22:17.140Z,16.00
2023-04-27T10:24:49.538Z,16.10
2023-04-27T10:27:20.065Z,16.20
2023-04-27T10:29:48.039Z,16.30
2023-04-27T10:32:24.073Z,16.30
2023-04-27T10:35:08.100Z,16.40
2023-04-27T10:37:42.172Z,16.50
2023-04-27T10:40:10.674Z,16.60
2023-04-27T10:42:37.511Z,16.70
2023-04-27T10:45:04.570Z,16.70
2023-04-27T10:47:45.462Z,16.80
2023-04-27T10:50:13.770Z,17.00
2023-04-27T10:52:46.913Z,17.10
2023-04-27T10:55:20.096Z,17.30
2023-04-27T10:57:51.900Z,17.50
2023-04-27T11:00:37.676Z,17.60
2023-04-27T11:03:11.629Z,17.60
2023-04-27T11:05:38.760Z,17.70
2023-04-27T11:08:10.505Z,17.80
2023-04-27T11:10:49.874Z,17.90
2023-04-27T11:13:17.700Z,18.00
2023-04-27T11:15:49.018Z,18.10
2023-04-27T11:18:17.718Z,18.10
2023-04-27T11:20:50.561Z,18.20
2023-04-27T11:23:28.947Z,18.20
2023-04-27T11:25:56.869Z,18.30
2023-04-27T11:28:24.437Z,18.30
2023-04-27T11:30:58.621Z,18.40
2023-04-27T11:33:26.423Z,18.40
2023-04-27T11:35:53.468Z,18.50
2023-04-27T11:38:21.860Z,18.60
2023-04-27T11:41:06.295Z,18.70
2023-04-27T11:43:33.620Z,18.80
2023-04-27T11:46:11.108Z,18.90
2023-04-27T11:48:38.768Z,18.80
2023-04-27T11:51:06.989Z,18.90
2023-04-27T11:53:38.327Z,18.90
2023-04-27T11:56:10.781Z,18.90
2023-04-27T11:58:39.267Z,19.10
2023-04-27T12:01:07.515Z,19.20
2023-04-27T12:03:35.380Z,19.20
2023-04-27T12:08:32.273Z,19.30
2023-04-27T12:10:59.164Z,19.40
2023-04-27T12:13:25.921Z,19.50
2023-04-27T12:15:52.683Z,19.70
2023-04-27T12:18:19.411Z,19.80
2023-04-27T12:20:46.518Z,20.00
2023-04-27T12:23:13.333Z,20.10
2023-04-27T12:25:41.206Z,20.10
2023-04-27T12:28:08.097Z,20.20
2023-04-27T12:30:35.115Z,20.30
2023-04-27T12:33:02.364Z,20.40
2023-04-27T12:35:31.929Z,20.40
2023-04-27T12:37:58.922Z,20.40
2023-04-27T12:40:25.951Z,20.50
2023-04-27T12:42:53.249Z,20.60
2023-04-27T12:45:20.092Z,20.70
2023-04-27T12:48:01.837Z,20.80
2023-04-27T12:50:31.654Z,20.80
2023-04-27T12:52:58.462Z,20.70
2023-04-27T12:57:58.378Z,20.60
2023-04-27T13:00:25.586Z,20.50
2023-04-27T13:02:52.892Z,20.50
2023-04-27T13:05:21.031Z,20.40
2023-04-27T13:07:48.254Z,20.30
2023-04-27T13:10:15.151Z,20.20
2023-04-27T13:12:42.080Z,20.00
2023-04-27T13:15:10.110Z,20.00
2023-04-27T13:17:37.085Z,20.00
2023-04-27T13:20:04.247Z,20.00
2023-04-27T13:22:31.001Z,19.90
2023-04-27T13:24:58.124Z,20.00
2023-04-27T13:27:28.317Z,20.10
2023-04-27T13:29:55.148Z,20.20
2023-04-27T13:32:22.556Z,20.40
2023-04-27T13:34:49.525Z,20.50
2023-04-27T13:37:16.675Z,20.60
2023-04-27T13:39:43.364Z,20.60
2023-04-27T13:42:10.233Z,20.60
2023-04-27T13:44:37.017Z,20.60
2023-04-27T13:47:03.968Z,20.60
2023-04-27T13:49:30.936Z,20.70
2023-04-27T13:51:58.690Z,20.80
2023-04-27T13:54:25.851Z,20.90
2023-04-27T13:56:52.618Z,21.00
2023-04-27T13:59:19.318Z,21.00
2023-04-27T14:01:46.156Z,21.00
2023-04-27T14:04:13.154Z,21.00
2023-04-27T14:06:39.969Z,21.00
2023-04-27T14:09:07.021Z,21.00
2023-04-27T14:11:42.069Z,21.00
2023-04-27T14:14:16.012Z,21.00
2023-04-27T14:16:43.312Z,21.00
2023-04-27T14:19:10.551Z,20.90
2023-04-27T14:21:37.290Z,20.80
2023-04-27T14:24:04.154Z,20.80
2023-04-27T14:26:31.008Z,20.80
2023-04-27T14:28:58.742Z,20.70
2023-04-27T14:31:26.509Z,20.70
2023-04-27T14:33:53.421Z,20.70
2023-04-27T14:36:20.349Z,20.70
2023-04-27T14:38:47.421Z,20.70
2023-04-27T14:41:14.174Z,20.70
2023-04-27T14:43:41.821Z,20.70
2023-04-27T14:46:19.595Z,20.60
2023-04-27T14:48:47.917Z,20.60
2023-04-27T14:51:15.934Z,20.50
2023-04-27T14:53:44.062Z,20.40
2023-04-27T14:56:11.229Z,20.40
2023-04-27T14:58:38.626Z,20.30
2023-04-27T15:01:06.100Z,20.30
2023-04-27T15:03:33.320Z,20.20
2023-04-27T15:06:01.238Z,20.20
2023-04-27T15:08:28.368Z,20.10
2023-04-27T15:10:57.925Z,20.10
2023-04-27T15:13:24.820Z,20.00
2023-04-27T15:15:56.147Z,20.00
2023-04-27T15:18:23.840Z,20.00
2023-04-27T15:20:56.977Z,20.00
2023-04-27T15:23:24.767Z,20.00
2023-04-27T15:25:54.846Z,19.90
2023-04-27T15:28:21.736Z,19.90
2023-04-27T15:30:49.052Z,19.90
2023-04-27T15:33:16.570Z,19.80
2023-04-27T15:35:43.363Z,19.80
2023-04-27T15:38:12.622Z,19.70
2023-04-27T15:40:39.897Z,19.70
2023-04-27T15:43:06.926Z,19.60
2023-04-27T15:45:33.772Z,19.60
2023-04-27T15:48:00.810Z,19.50
2023-04-27T15:50:27.563Z,19.50
2023-04-27T15:52:54.268Z,19.40
2023-04-27T15:55:22.900Z,19.40
2023-04-27T15:57:50.404Z,19.40
2023-04-27T16:00:18.910Z,19.30
2023-04-27T16:02:46.403Z,19.30
2023-04-27T16:05:13.908Z,19.30
2023-04-27T16:07:43.386Z,19.20
2023-04-27T16:10:11.255Z,19.20
2023-04-27T16:12:38.311Z,19.20
2023-04-27T16:15:06.090Z,19.20
2023-04-27T16:17:37.646Z,19.20
2023-04-27T16:20:08.075Z,19.20
2023-04-27T16:22:35.722Z,19.20
2023-04-27T16:25:03.860Z,19.20
2023-04-27T16:27:30.920Z,19.30
2023-04-27T16:29:57.757Z,19.40
2023-04-27T16:32:24.742Z,19.40
2023-04-27T16:34:51.569Z,19.50
2023-04-27T16:37:18.310Z,19.50
2023-04-27T16:39:45.344Z,19.50
2023-04-27T16:42:16.264Z,19.50
2023-04-27T16:44:43.043Z,19.50
2023-04-27T16:47:09.749Z,19.40
2023-04-27T16:49:37.700Z,19.40
2023-04-27T16:52:04.801Z,19.40
2023-04-27T16:54:31.679Z,19.30
2023-04-27T16:56:58.454Z,19.30
2023-04-27T16:59:25.207Z,19.30
2023-04-27T17:01:52.205Z,19.20
2023-04-27T17:04:19.238Z,19.20
2023-04-27T17:06:47.942Z,19.20
2023-04-27T17:09:15.200Z,19.10
2023-04-27T17:11:42.418Z,19.00
2023-04-27T17:14:09.158Z,19.00
2023-04-27T17:16:35.933Z,19.10
2023-04-27T17:19:02.625Z,19.00
2023-04-27T17:21:29.397Z,19.00
2023-04-27T17:23:56.231Z,19.00
2023-04-27T17:26:23.056Z,18.90
2023-04-27T17:28:49.890Z,18.90
2023-04-27T17:31:19.635Z,18.90
2023-04-27T17:33:46.462Z,18.80
2023-04-27T17:36:14.883Z,18.80
2023-04-27T17:38:41.794Z,18.80
2023-04-27T17:41:08.543Z,18.70
2023-04-27T17:43:37.528Z,18.70
2023-04-27T17:46:11.083Z,18.70
2023-04-27T17:48:37.984Z,18.60
2023-04-27T17:51:04.822Z,18.60
2023-04-27T17:53:31.638Z,18.50
2023-04-27T17:55:58.475Z,18.50
2023-04-27T17:58:25.637Z,18.50
2023-04-27T18:00:52.610Z,18.50
2023-04-27T18:03:22.597Z,18.50
2023-04-27T18:05:51.831Z,18.40
2023-04-27T18:08:21.248Z,18.40
2023-04-27T18:10:48.090Z,18.30
2023-04-27T18:13:18.477Z,18.30
2023-04-27T18:15:45.166Z,18.20
2023-04-27T18:18:19.890Z,18.20
2023-04-27T18:20:47.690Z,18.20
2023-04-27T18:23:33.755Z,18.20
2023-04-27T18:26:13.214Z,18.20
2023-04-27T18:28:41.781Z,18.10
2023-04-27T18:31:18.402Z,18.10
2023-04-27T18:33:45.873Z,18.00
2023-04-27T18:36:12.968Z,18.00
2023-04-27T18:38:39.873Z,17.90
2023-04-27T18:41:07.995Z,17.90
2023-04-27T18:43:36.688Z,17.80
2023-04-27T18:46:04.587Z,17.80
2023-04-27T18:48:32.268Z,17.80
2023-04-27T18:50:59.157Z,17.70
2023-04-27T18:53:27.261Z,17.70
2023-04-27T18:55:54.138Z,17.60
2023-04-27T18:58:22.268Z,17.60
2023-04-27T19:00:49.169Z,17.50
2023-04-27T19:03:16.596Z,17.50
2023-04-27T19:05:43.943Z,17.40
2023-04-27T19:08:11.285Z,17.40
2023-04-27T19:10:41.112Z,17.30
2023-04-27T19:13:08.076Z,17.30
2023-04-27T19:15:34.842Z,17.30
2023-04-27T19:18:09.313Z,17.20
2023-04-27T19:20:37.579Z,17.20
2023-04-27T19:23:05.186Z,17.10
2023-04-27T19:25:34.569Z,17.10
2023-04-27T19:28:01.371Z,17.10
2023-04-27T19:30:28.222Z,17.00
2023-04-27T19:32:55.123Z,17.00
2023-04-27T19:35:23.922Z,17.00
2023-04-27T19:37:51.220Z,16.90
2023-04-27T19:40:18.376Z,16.90
2023-04-27T19:42:45.497Z,16.80
2023-04-27T19:45:12.557Z,16.80
2023-04-27T19:47:39.584Z,16.70
2023-04-27T19:50:07.449Z,16.70
2023-04-27T19:52:34.574Z,16.70
2023-04-27T19:55:01.499Z,16.60
2023-04-27T19:57:28.474Z,16.60
2023-04-27T19:59:55.414Z,16.60
2023-04-27T20:02:22.788Z,16.60
2023-04-27T20:04:50.113Z,16.50
2023-04-27T20:07:17.166Z,16.50
2023-04-27T20:09:43.965Z,16.50
2023-04-27T20:12:23.694Z,16.40
2023-04-27T20:14:57.766Z,16.40
2023-04-27T20:17:27.632Z,16.40
2023-04-27T20:20:02.496Z,16.30
2023-04-27T20:22:29.363Z,16.30
2023-04-27T20:24:59.343Z,16.30
2023-04-27T20:27:26.285Z,16.20
2023-04-27T20:29:53.230Z,16.20
2023-04-27T20:32:20.144Z,16.10
2023-04-27T20:34:47.082Z,16.10
2023-04-27T20:37:13.814Z,16.10
2023-04-27T20:39:41.552Z,16.10
2023-04-27T20:42:18.487Z,16.10
2023-04-27T20:44:48.560Z,16.00
2023-04-27T20:47:15.551Z,16.00
2023-04-27T20:49:42.525Z,16.00
2023-04-27T20:52:09.297Z,16.00
2023-04-27T20:54:39.698Z,16.00
2023-04-27T20:57:11.016Z,16.00
2023-04-27T20:59:37.781Z,15.90
2023-04-27T21:02:04.594Z,15.90
2023-04-27T21:04:33.341Z,15.90
2023-04-27T21:07:10.897Z,15.90
2023-04-27T21:09:38.957Z,15.90
2023-04-27T21:12:06.615Z,15.80
2023-04-27T21:14:34.556Z,15.80
2023-04-27T21:17:01.536Z,15.80
2023-04-27T21:19:28.477Z,15.80
2023-04-27T21:21:55.493Z,15.80
2023-04-27T21:24:22.502Z,15.80
2023-04-27T21:26:49.645Z,15.80
2023-04-27T21:29:16.477Z,15.70
2023-04-27T21:31:44.534Z,15.70
2023-04-27T21:34:11.738Z,15.70
2023-04-27T21:36:38.544Z,15.60
2023-04-27T21:39:06.411Z,15.60
2023-04-27T21:41:34.774Z,15.60
2023-04-27T21:44:01.600Z,15.60
2023-04-27T21:46:28.391Z,15.50
2023-04-27T21:48:55.313Z,15.50
2023-04-27T21:51:22.449Z,15.50
2023-04-27T21:53:49.232Z,15.40
2023-04-27T21:56:16.207Z,15.40
2023-04-27T21:58:43.060Z,15.40
2023-04-27T22:01:11.221Z,15.40
2023-04-27T22:03:38.316Z,15.40
2023-04-27T22:06:06.339Z,15.40
2023-04-27T22:08:33.251Z,15.30
2023-04-27T22:11:00.192Z,15.30
2023-04-27T22:13:27.121Z,15.30
2023-04-27T22:15:53.930Z,15.30
2023-04-27T22:18:20.773Z,15.20
2023-04-27T22:20:47.529Z,15.20
2023-04-27T22:23:14.413Z,15.20
2023-04-27T22:25:43.085Z,15.20
2023-04-27T22:28:10.855Z,15.10
2023-04-27T22:30:39.125Z,15.10
2023-04-27T22:33:06.358Z,15.10
2023-04-27T22:35:34.122Z,15.10
2023-04-27T22:38:01.042Z,15.00
2023-04-27T22:40:27.968Z,15.00
2023-04-27T22:42:55.482Z,15.00
2023-04-27T22:45:23.224Z,15.00
2023-04-27T22:47:50.359Z,14.90
2023-04-27T22:50:17.256Z,14.90
2023-04-27T22:52:44.356Z,14.90
2023-04-27T22:55:12.286Z,14.90
2023-04-27T22:57:39.487Z,14.90
2023-04-27T23:00:09.267Z,14.90
2023-04-27T23:02:36.245Z,14.80
2023-04-27T23:05:03.913Z,14.80
2023-04-27T23:07:30.694Z,14.80
2023-04-27T23:09:57.496Z,14.70
2023-04-27T23:12:26.696Z,14.80
2023-04-27T23:14:53.555Z,14.80
2023-04-27T23:17:22.773Z,14.70
2023-04-27T23:19:49.849Z,14.70
2023-04-27T23:22:16.781Z,14.70
2023-04-27T23:24:43.539Z,14.70
2023-04-27T23:27:10.283Z,14.70
2023-04-27T23:29:37.115Z,14.70
2023-04-27T23:32:04.593Z,14.60
2023-04-27T23:34:34.181Z,14.70
2023-04-27T23:37:01.128Z,14.70
2023-04-27T23:39:28.576Z,14.70
2023-04-27T23:41:55.357Z,14.70
2023-04-27T23:44:22.399Z,14.70
2023-04-27T23:46:49.215Z,14.70
2023-04-27T23:49:16.073Z,14.70
2023-04-27T23:51:42.923Z,14.70
2023-04-27T23:54:09.893Z,14.70
2023-04-27T23:56:36.811Z,14.70
2023-04-27T23:59:03.531Z,14.70
